sensor_id;sensor_type;location;lat;lon;timestamp;P1;durP1;ratioP1;P2;durP2;ratioP2
9422;SDS011;65863;49.506;10.400;2023-08-12T00:01:04;7.47;;;2.83;;
9422;SDS011;65863;49.506;10.400;2023-08-12T00:03:48;5.67;;;2.67;;
9422;SDS011;65863;49.506;10.400;2023-08-12T00:06:33;4.13;;;2.67;;
9422;SDS011;65863;49.506;10.400;2023-08-12T00:09:17;5.17;;;3.07;;
9422;SDS011;65863;49.506;10.400;2023-08-12T00:12:02;3.50;;;2.73;;
9422;SDS011;65863;49.506;10.400;2023-08-12T00:14:46;3.17;;;2.87;;
9422;SDS011;65863;49.506;10.400;2023-08-12T00:17:30;4.13;;;2.97;;
9422;SDS011;65863;49.506;10.400;2023-08-12T00:20:14;6.73;;;2.77;;
9422;SDS011;65863;49.506;10.400;2023-08-12T00:22:58;4.10;;;2.97;;
9422;SDS011;65863;49.506;10.400;2023-08-12T00:25:43;3.60;;;2.53;;
9422;SDS011;65863;49.506;10.400;2023-08-12T00:28:27;3.30;;;2.50;;
9422;SDS011;65863;49.506;10.400;2023-08-12T00:31:11;2.80;;;2.57;;
9422;SDS011;65863;49.506;10.400;2023-08-12T00:33:55;4.70;;;2.70;;
9422;SDS011;65863;49.506;10.400;2023-08-12T00:36:39;3.57;;;3.27;;
9422;SDS011;65863;49.506;10.400;2023-08-12T00:39:23;3.87;;;2.87;;
9422;SDS011;65863;49.506;10.400;2023-08-12T00:42:07;4.57;;;2.90;;
9422;SDS011;65863;49.506;10.400;2023-08-12T00:44:52;3.20;;;2.90;;
9422;SDS011;65863;49.506;10.400;2023-08-12T00:47:36;2.80;;;2.60;;
9422;SDS011;65863;49.506;10.400;2023-08-12T00:50:20;3.27;;;2.97;;
9422;SDS011;65863;49.506;10.400;2023-08-12T00:53:05;14.67;;;2.80;;
9422;SDS011;65863;49.506;10.400;2023-08-12T00:55:50;5.07;;;3.00;;
9422;SDS011;65863;49.506;10.400;2023-08-12T00:58:34;3.97;;;2.97;;
9422;SDS011;65863;49.506;10.400;2023-08-12T01:01:19;3.53;;;2.80;;
9422;SDS011;65863;49.506;10.400;2023-08-12T01:04:03;3.10;;;2.80;;
9422;SDS011;65863;49.506;10.400;2023-08-12T01:06:47;2.97;;;2.77;;
9422;SDS011;65863;49.506;10.400;2023-08-12T01:09:32;3.33;;;3.03;;
9422;SDS011;65863;49.506;10.400;2023-08-12T01:12:18;4.00;;;2.60;;
9422;SDS011;65863;49.506;10.400;2023-08-12T01:15:11;3.03;;;2.83;;
9422;SDS011;65863;49.506;10.400;2023-08-12T01:17:59;3.00;;;2.80;;
9422;SDS011;65863;49.506;10.400;2023-08-12T01:20:46;3.43;;;3.07;;
9422;SDS011;65863;49.506;10.400;2023-08-12T01:23:30;3.10;;;2.90;;
9422;SDS011;65863;49.506;10.400;2023-08-12T01:26:16;3.33;;;2.93;;
9422;SDS011;65863;49.506;10.400;2023-08-12T01:29:00;2.93;;;2.73;;
9422;SDS011;65863;49.506;10.400;2023-08-12T01:31:55;2.87;;;2.67;;
9422;SDS011;65863;49.506;10.400;2023-08-12T01:34:53;3.57;;;2.80;;
9422;SDS011;65863;49.506;10.400;2023-08-12T01:37:46;3.80;;;2.53;;
9422;SDS011;65863;49.506;10.400;2023-08-12T01:40:33;3.47;;;3.00;;
9422;SDS011;65863;49.506;10.400;2023-08-12T01:43:19;3.17;;;2.90;;
9422;SDS011;65863;49.506;10.400;2023-08-12T01:46:03;5.33;;;2.80;;
9422;SDS011;65863;49.506;10.400;2023-08-12T01:48:47;3.17;;;2.97;;
9422;SDS011;65863;49.506;10.400;2023-08-12T01:51:32;3.43;;;2.97;;
9422;SDS011;65863;49.506;10.400;2023-08-12T01:54:16;3.27;;;2.97;;
9422;SDS011;65863;49.506;10.400;2023-08-12T01:57:01;3.00;;;2.80;;
9422;SDS011;65863;49.506;10.400;2023-08-12T01:59:46;5.87;;;3.30;;
9422;SDS011;65863;49.506;10.400;2023-08-12T02:02:30;3.27;;;2.77;;
9422;SDS011;65863;49.506;10.400;2023-08-12T02:05:14;3.43;;;3.10;;
9422;SDS011;65863;49.506;10.400;2023-08-12T02:07:58;2.77;;;2.57;;
9422;SDS011;65863;49.506;10.400;2023-08-12T02:10:42;2.73;;;2.53;;
9422;SDS011;65863;49.506;10.400;2023-08-12T02:13:26;4.20;;;2.70;;
9422;SDS011;65863;49.506;10.400;2023-08-12T02:16:10;3.00;;;2.80;;
9422;SDS011;65863;49.506;10.400;2023-08-12T02:18:54;3.83;;;3.00;;
9422;SDS011;65863;49.506;10.400;2023-08-12T02:21:39;3.73;;;3.20;;
9422;SDS011;65863;49.506;10.400;2023-08-12T02:24:23;3.37;;;3.17;;
9422;SDS011;65863;49.506;10.400;2023-08-12T02:27:07;5.00;;;3.37;;
9422;SDS011;65863;49.506;10.400;2023-08-12T02:29:50;5.47;;;3.00;;
9422;SDS011;65863;49.506;10.400;2023-08-12T02:32:34;3.27;;;2.97;;
9422;SDS011;65863;49.506;10.400;2023-08-12T02:35:19;3.90;;;3.50;;
9422;SDS011;65863;49.506;10.400;2023-08-12T02:38:04;3.20;;;2.90;;
9422;SDS011;65863;49.506;10.400;2023-08-12T02:40:48;4.57;;;2.97;;
9422;SDS011;65863;49.506;10.400;2023-08-12T02:43:33;4.37;;;3.13;;
9422;SDS011;65863;49.506;10.400;2023-08-12T02:46:19;2.33;;;2.23;;
9422;SDS011;65863;49.506;10.400;2023-08-12T02:49:04;3.03;;;2.77;;
9422;SDS011;65863;49.506;10.400;2023-08-12T02:51:48;4.33;;;2.90;;
9422;SDS011;65863;49.506;10.400;2023-08-12T02:54:32;3.03;;;2.83;;
9422;SDS011;65863;49.506;10.400;2023-08-12T02:57:16;3.07;;;2.73;;
9422;SDS011;65863;49.506;10.400;2023-08-12T03:00:00;3.13;;;2.83;;
9422;SDS011;65863;49.506;10.400;2023-08-12T03:02:44;3.60;;;2.87;;
9422;SDS011;65863;49.506;10.400;2023-08-12T03:05:30;2.87;;;2.67;;
9422;SDS011;65863;49.506;10.400;2023-08-12T03:08:14;3.40;;;2.70;;
9422;SDS011;65863;49.506;10.400;2023-08-12T03:11:01;3.40;;;3.10;;
9422;SDS011;65863;49.506;10.400;2023-08-12T03:13:47;3.17;;;2.87;;
9422;SDS011;65863;49.506;10.400;2023-08-12T03:16:31;3.90;;;2.37;;
9422;SDS011;65863;49.506;10.400;2023-08-12T03:19:16;3.00;;;2.80;;
9422;SDS011;65863;49.506;10.400;2023-08-12T03:22:00;3.00;;;2.80;;
9422;SDS011;65863;49.506;10.400;2023-08-12T03:24:45;2.80;;;2.60;;
9422;SDS011;65863;49.506;10.400;2023-08-12T03:27:29;2.70;;;2.50;;
9422;SDS011;65863;49.506;10.400;2023-08-12T03:30:13;3.33;;;3.10;;
9422;SDS011;65863;49.506;10.400;2023-08-12T03:32:59;3.10;;;2.87;;
9422;SDS011;65863;49.506;10.400;2023-08-12T03:35:47;2.77;;;2.57;;
9422;SDS011;65863;49.506;10.400;2023-08-12T03:38:33;3.83;;;2.70;;
9422;SDS011;65863;49.506;10.400;2023-08-12T03:41:19;2.63;;;2.43;;
9422;SDS011;65863;49.506;10.400;2023-08-12T03:44:04;4.20;;;2.77;;
9422;SDS011;65863;49.506;10.400;2023-08-12T03:46:49;2.97;;;2.77;;
9422;SDS011;65863;49.506;10.400;2023-08-12T03:49:33;3.80;;;3.07;;
9422;SDS011;65863;49.506;10.400;2023-08-12T03:52:17;3.67;;;2.80;;
9422;SDS011;65863;49.506;10.400;2023-08-12T03:55:01;2.80;;;2.60;;
9422;SDS011;65863;49.506;10.400;2023-08-12T03:57:45;10.90;;;2.80;;
9422;SDS011;65863;49.506;10.400;2023-08-12T04:00:29;3.40;;;2.90;;
9422;SDS011;65863;49.506;10.400;2023-08-12T04:03:16;4.13;;;2.97;;
9422;SDS011;65863;49.506;10.400;2023-08-12T04:06:01;3.43;;;2.87;;
9422;SDS011;65863;49.506;10.400;2023-08-12T04:08:45;4.30;;;2.70;;
9422;SDS011;65863;49.506;10.400;2023-08-12T04:11:29;4.40;;;2.90;;
9422;SDS011;65863;49.506;10.400;2023-08-12T04:14:14;3.07;;;2.87;;
9422;SDS011;65863;49.506;10.400;2023-08-12T04:17:00;3.43;;;3.13;;
9422;SDS011;65863;49.506;10.400;2023-08-12T04:19:45;3.00;;;2.70;;
9422;SDS011;65863;49.506;10.400;2023-08-12T04:22:30;2.83;;;2.63;;
9422;SDS011;65863;49.506;10.400;2023-08-12T04:25:14;2.97;;;2.77;;
9422;SDS011;65863;49.506;10.400;2023-08-12T04:27:58;4.53;;;3.13;;
9422;SDS011;65863;49.506;10.400;2023-08-12T04:30:43;2.47;;;2.27;;
9422;SDS011;65863;49.506;10.400;2023-08-12T04:33:29;2.90;;;2.70;;
9422;SDS011;65863;49.506;10.400;2023-08-12T04:36:13;2.87;;;2.67;;
9422;SDS011;65863;49.506;10.400;2023-08-12T04:38:57;2.73;;;2.53;;
9422;SDS011;65863;49.506;10.400;2023-08-12T04:41:41;2.50;;;2.30;;
9422;SDS011;65863;49.506;10.400;2023-08-12T04:44:26;2.60;;;2.40;;
9422;SDS011;65863;49.506;10.400;2023-08-12T04:47:10;2.80;;;2.40;;
9422;SDS011;65863;49.506;10.400;2023-08-12T04:49:55;3.10;;;2.67;;
9422;SDS011;65863;49.506;10.400;2023-08-12T04:52:39;2.47;;;2.27;;
9422;SDS011;65863;49.506;10.400;2023-08-12T04:55:24;3.87;;;2.60;;
9422;SDS011;65863;49.506;10.400;2023-08-12T04:58:10;3.70;;;2.63;;
9422;SDS011;65863;49.506;10.400;2023-08-12T05:00:54;2.43;;;2.23;;
9422;SDS011;65863;49.506;10.400;2023-08-12T05:03:40;2.30;;;2.03;;
9422;SDS011;65863;49.506;10.400;2023-08-12T05:06:25;4.07;;;2.10;;
9422;SDS011;65863;49.506;10.400;2023-08-12T05:09:13;2.50;;;2.30;;
9422;SDS011;65863;49.506;10.400;2023-08-12T05:11:58;2.37;;;2.17;;
9422;SDS011;65863;49.506;10.400;2023-08-12T05:14:42;9.13;;;2.73;;
9422;SDS011;65863;49.506;10.400;2023-08-12T05:17:26;2.77;;;1.97;;
9422;SDS011;65863;49.506;10.400;2023-08-12T05:20:12;2.30;;;2.10;;
9422;SDS011;65863;49.506;10.400;2023-08-12T05:22:56;2.20;;;1.80;;
9422;SDS011;65863;49.506;10.400;2023-08-12T05:25:40;3.70;;;2.40;;
9422;SDS011;65863;49.506;10.400;2023-08-12T05:28:24;3.37;;;2.20;;
9422;SDS011;65863;49.506;10.400;2023-08-12T05:31:08;2.67;;;2.23;;
9422;SDS011;65863;49.506;10.400;2023-08-12T05:33:52;3.33;;;2.23;;
9422;SDS011;65863;49.506;10.400;2023-08-12T05:36:36;3.73;;;2.20;;
9422;SDS011;65863;49.506;10.400;2023-08-12T05:39:20;2.30;;;2.10;;
9422;SDS011;65863;49.506;10.400;2023-08-12T05:42:05;2.27;;;2.07;;
9422;SDS011;65863;49.506;10.400;2023-08-12T05:44:49;2.97;;;1.97;;
9422;SDS011;65863;49.506;10.400;2023-08-12T05:47:33;3.00;;;2.30;;
9422;SDS011;65863;49.506;10.400;2023-08-12T05:50:17;2.57;;;2.27;;
9422;SDS011;65863;49.506;10.400;2023-08-12T05:53:01;2.20;;;2.03;;
9422;SDS011;65863;49.506;10.400;2023-08-12T05:55:45;2.83;;;2.20;;
9422;SDS011;65863;49.506;10.400;2023-08-12T05:58:29;6.17;;;2.50;;
9422;SDS011;65863;49.506;10.400;2023-08-12T06:01:13;2.50;;;2.30;;
9422;SDS011;65863;49.506;10.400;2023-08-12T06:03:58;3.00;;;2.53;;
9422;SDS011;65863;49.506;10.400;2023-08-12T06:06:42;3.40;;;2.70;;
9422;SDS011;65863;49.506;10.400;2023-08-12T06:09:26;4.30;;;2.80;;
9422;SDS011;65863;49.506;10.400;2023-08-12T06:12:10;3.17;;;2.80;;
9422;SDS011;65863;49.506;10.400;2023-08-12T06:14:54;3.50;;;2.53;;
9422;SDS011;65863;49.506;10.400;2023-08-12T06:17:38;3.57;;;2.60;;
9422;SDS011;65863;49.506;10.400;2023-08-12T06:20:22;2.53;;;2.33;;
9422;SDS011;65863;49.506;10.400;2023-08-12T06:23:07;2.37;;;2.17;;
9422;SDS011;65863;49.506;10.400;2023-08-12T06:25:51;7.10;;;2.67;;
9422;SDS011;65863;49.506;10.400;2023-08-12T06:28:35;2.70;;;2.50;;
9422;SDS011;65863;49.506;10.400;2023-08-12T06:31:19;5.67;;;2.50;;
9422;SDS011;65863;49.506;10.400;2023-08-12T06:34:03;3.87;;;2.40;;
9422;SDS011;65863;49.506;10.400;2023-08-12T06:36:48;2.43;;;2.13;;
9422;SDS011;65863;49.506;10.400;2023-08-12T06:39:31;3.30;;;2.27;;
9422;SDS011;65863;49.506;10.400;2023-08-12T06:42:16;2.97;;;2.60;;
9422;SDS011;65863;49.506;10.400;2023-08-12T06:45:02;3.93;;;2.67;;
9422;SDS011;65863;49.506;10.400;2023-08-12T06:47:47;2.77;;;2.57;;
9422;SDS011;65863;49.506;10.400;2023-08-12T06:50:31;5.90;;;2.60;;
9422;SDS011;65863;49.506;10.400;2023-08-12T06:53:16;3.00;;;2.70;;
9422;SDS011;65863;49.506;10.400;2023-08-12T06:56:00;3.67;;;3.10;;
9422;SDS011;65863;49.506;10.400;2023-08-12T06:58:45;3.13;;;2.60;;
9422;SDS011;65863;49.506;10.400;2023-08-12T07:01:28;3.50;;;2.80;;
9422;SDS011;65863;49.506;10.400;2023-08-12T07:04:12;8.13;;;2.80;;
9422;SDS011;65863;49.506;10.400;2023-08-12T07:06:56;5.80;;;2.70;;
9422;SDS011;65863;49.506;10.400;2023-08-12T07:09:40;4.13;;;2.50;;
9422;SDS011;65863;49.506;10.400;2023-08-12T07:12:24;3.40;;;2.33;;
9422;SDS011;65863;49.506;10.400;2023-08-12T07:15:08;2.73;;;2.53;;
9422;SDS011;65863;49.506;10.400;2023-08-12T07:17:54;5.47;;;2.50;;
9422;SDS011;65863;49.506;10.400;2023-08-12T07:20:38;3.27;;;2.30;;
9422;SDS011;65863;49.506;10.400;2023-08-12T07:23:22;2.70;;;2.30;;
9422;SDS011;65863;49.506;10.400;2023-08-12T07:26:06;3.93;;;2.70;;
9422;SDS011;65863;49.506;10.400;2023-08-12T07:28:50;2.40;;;2.20;;
9422;SDS011;65863;49.506;10.400;2023-08-12T07:31:35;2.50;;;2.30;;
9422;SDS011;65863;49.506;10.400;2023-08-12T07:34:19;2.93;;;2.03;;
9422;SDS011;65863;49.506;10.400;2023-08-12T07:37:03;2.90;;;2.60;;
9422;SDS011;65863;49.506;10.400;2023-08-12T07:39:47;4.30;;;2.20;;
9422;SDS011;65863;49.506;10.400;2023-08-12T07:42:31;3.37;;;1.90;;
9422;SDS011;65863;49.506;10.400;2023-08-12T07:45:15;3.27;;;2.20;;
9422;SDS011;65863;49.506;10.400;2023-08-12T07:47:59;3.30;;;2.23;;
9422;SDS011;65863;49.506;10.400;2023-08-12T07:50:44;2.50;;;2.30;;
9422;SDS011;65863;49.506;10.400;2023-08-12T07:53:28;3.57;;;2.33;;
9422;SDS011;65863;49.506;10.400;2023-08-12T07:56:12;3.83;;;2.40;;
9422;SDS011;65863;49.506;10.400;2023-08-12T07:58:55;2.00;;;1.90;;
9422;SDS011;65863;49.506;10.400;2023-08-12T08:01:40;2.20;;;2.10;;
9422;SDS011;65863;49.506;10.400;2023-08-12T08:04:24;3.80;;;2.33;;
9422;SDS011;65863;49.506;10.400;2023-08-12T08:07:08;2.00;;;1.90;;
9422;SDS011;65863;49.506;10.400;2023-08-12T08:09:52;2.43;;;2.20;;
9422;SDS011;65863;49.506;10.400;2023-08-12T08:12:36;2.50;;;2.00;;
9422;SDS011;65863;49.506;10.400;2023-08-12T08:15:21;2.23;;;2.03;;
9422;SDS011;65863;49.506;10.400;2023-08-12T08:18:05;2.50;;;2.30;;
9422;SDS011;65863;49.506;10.400;2023-08-12T08:20:49;4.20;;;1.90;;
9422;SDS011;65863;49.506;10.400;2023-08-12T08:23:33;1.97;;;1.83;;
9422;SDS011;65863;49.506;10.400;2023-08-12T08:26:17;3.07;;;2.30;;
9422;SDS011;65863;49.506;10.400;2023-08-12T08:29:02;3.70;;;2.20;;
9422;SDS011;65863;49.506;10.400;2023-08-12T08:31:46;2.27;;;2.10;;
9422;SDS011;65863;49.506;10.400;2023-08-12T08:34:31;2.53;;;1.90;;
9422;SDS011;65863;49.506;10.400;2023-08-12T08:37:15;6.53;;;2.43;;
9422;SDS011;65863;49.506;10.400;2023-08-12T08:39:59;3.43;;;2.00;;
9422;SDS011;65863;49.506;10.400;2023-08-12T08:42:43;2.90;;;2.60;;
9422;SDS011;65863;49.506;10.400;2023-08-12T08:45:31;2.53;;;2.20;;
9422;SDS011;65863;49.506;10.400;2023-08-12T08:48:16;2.40;;;2.20;;
9422;SDS011;65863;49.506;10.400;2023-08-12T08:51:01;2.43;;;2.23;;
9422;SDS011;65863;49.506;10.400;2023-08-12T08:53:46;6.27;;;2.43;;
9422;SDS011;65863;49.506;10.400;2023-08-12T08:56:31;5.63;;;2.50;;
9422;SDS011;65863;49.506;10.400;2023-08-12T08:59:16;5.17;;;2.40;;
9422;SDS011;65863;49.506;10.400;2023-08-12T09:02:00;2.37;;;2.17;;
9422;SDS011;65863;49.506;10.400;2023-08-12T09:04:45;5.30;;;2.40;;
9422;SDS011;65863;49.506;10.400;2023-08-12T09:07:30;2.93;;;2.37;;
9422;SDS011;65863;49.506;10.400;2023-08-12T09:10:15;3.53;;;2.30;;
9422;SDS011;65863;49.506;10.400;2023-08-12T09:13:04;6.65;;;2.42;;
9422;SDS011;65863;49.506;10.400;2023-08-12T09:15:48;3.00;;;2.40;;
9422;SDS011;65863;49.506;10.400;2023-08-12T09:18:32;2.38;;;2.20;;
9422;SDS011;65863;49.506;10.400;2023-08-12T09:21:16;2.60;;;2.40;;
9422;SDS011;65863;49.506;10.400;2023-08-12T09:24:03;2.25;;;2.05;;
9422;SDS011;65863;49.506;10.400;2023-08-12T09:26:51;2.63;;;2.42;;
9422;SDS011;65863;49.506;10.400;2023-08-12T09:29:35;2.97;;;2.50;;
9422;SDS011;65863;49.506;10.400;2023-08-12T09:32:20;2.83;;;2.63;;
9422;SDS011;65863;49.506;10.400;2023-08-12T09:35:04;3.58;;;2.15;;
9422;SDS011;65863;49.506;10.400;2023-08-12T09:37:50;3.67;;;2.70;;
9422;SDS011;65863;49.506;10.400;2023-08-12T09:40:34;3.63;;;2.55;;
9422;SDS011;65863;49.506;10.400;2023-08-12T09:43:23;3.55;;;2.38;;
9422;SDS011;65863;49.506;10.400;2023-08-12T09:46:11;2.35;;;2.15;;
9422;SDS011;65863;49.506;10.400;2023-08-12T09:48:59;3.65;;;2.65;;
9422;SDS011;65863;49.506;10.400;2023-08-12T09:51:43;3.30;;;2.50;;
9422;SDS011;65863;49.506;10.400;2023-08-12T09:54:28;3.33;;;2.30;;
9422;SDS011;65863;49.506;10.400;2023-08-12T09:57:15;3.38;;;2.67;;
9422;SDS011;65863;49.506;10.400;2023-08-12T10:00:02;2.65;;;2.25;;
9422;SDS011;65863;49.506;10.400;2023-08-12T10:02:50;4.82;;;2.80;;
9422;SDS011;65863;49.506;10.400;2023-08-12T10:05:38;4.60;;;2.50;;
9422;SDS011;65863;49.506;10.400;2023-08-12T10:08:23;2.63;;;2.35;;
9422;SDS011;65863;49.506;10.400;2023-08-12T10:11:07;6.43;;;2.83;;
9422;SDS011;65863;49.506;10.400;2023-08-12T10:13:53;6.63;;;2.58;;
9422;SDS011;65863;49.506;10.400;2023-08-12T10:16:38;4.32;;;3.20;;
9422;SDS011;65863;49.506;10.400;2023-08-12T10:19:25;2.63;;;2.30;;
9422;SDS011;65863;49.506;10.400;2023-08-12T10:22:10;2.75;;;2.35;;
9422;SDS011;65863;49.506;10.400;2023-08-12T10:24:55;2.33;;;2.20;;
9422;SDS011;65863;49.506;10.400;2023-08-12T10:27:45;3.33;;;2.47;;
9422;SDS011;65863;49.506;10.400;2023-08-12T10:30:30;3.97;;;2.50;;
9422;SDS011;65863;49.506;10.400;2023-08-12T10:33:15;3.00;;;2.20;;
9422;SDS011;65863;49.506;10.400;2023-08-12T10:36:02;2.90;;;2.45;;
9422;SDS011;65863;49.506;10.400;2023-08-12T10:38:47;2.95;;;2.67;;
9422;SDS011;65863;49.506;10.400;2023-08-12T10:41:32;2.97;;;2.40;;
9422;SDS011;65863;49.506;10.400;2023-08-12T10:44:20;2.67;;;2.47;;
9422;SDS011;65863;49.506;10.400;2023-08-12T10:47:08;7.93;;;2.83;;
9422;SDS011;65863;49.506;10.400;2023-08-12T10:49:54;3.83;;;2.60;;
9422;SDS011;65863;49.506;10.400;2023-08-12T10:52:38;2.67;;;2.47;;
9422;SDS011;65863;49.506;10.400;2023-08-12T10:55:24;6.15;;;2.15;;
9422;SDS011;65863;49.506;10.400;2023-08-12T10:58:13;3.13;;;2.30;;
9422;SDS011;65863;49.506;10.400;2023-08-12T11:01:10;2.63;;;2.35;;
9422;SDS011;65863;49.506;10.400;2023-08-12T11:04:00;2.97;;;2.22;;
9422;SDS011;65863;49.506;10.400;2023-08-12T11:06:47;11.25;;;2.38;;
9422;SDS011;65863;49.506;10.400;2023-08-12T11:09:31;5.82;;;2.50;;
9422;SDS011;65863;49.506;10.400;2023-08-12T11:12:18;2.70;;;2.40;;
9422;SDS011;65863;49.506;10.400;2023-08-12T11:15:10;2.88;;;2.47;;
9422;SDS011;65863;49.506;10.400;2023-08-12T11:17:54;4.80;;;2.55;;
9422;SDS011;65863;49.506;10.400;2023-08-12T11:20:39;6.57;;;2.67;;
9422;SDS011;65863;49.506;10.400;2023-08-12T11:23:24;2.70;;;2.47;;
9422;SDS011;65863;49.506;10.400;2023-08-12T11:26:08;3.10;;;2.30;;
9422;SDS011;65863;49.506;10.400;2023-08-12T11:28:53;4.28;;;2.30;;
9422;SDS011;65863;49.506;10.400;2023-08-12T11:31:37;3.92;;;2.17;;
9422;SDS011;65863;49.506;10.400;2023-08-12T11:34:21;5.55;;;2.50;;
9422;SDS011;65863;49.506;10.400;2023-08-12T11:37:05;3.25;;;2.38;;
9422;SDS011;65863;49.506;10.400;2023-08-12T11:39:53;2.90;;;2.60;;
9422;SDS011;65863;49.506;10.400;2023-08-12T11:42:37;2.47;;;2.22;;
9422;SDS011;65863;49.506;10.400;2023-08-12T11:45:23;2.50;;;2.17;;
9422;SDS011;65863;49.506;10.400;2023-08-12T11:48:09;5.38;;;2.38;;
9422;SDS011;65863;49.506;10.400;2023-08-12T11:50:54;2.72;;;2.30;;
9422;SDS011;65863;49.506;10.400;2023-08-12T11:53:39;5.00;;;2.10;;
9422;SDS011;65863;49.506;10.400;2023-08-12T11:56:23;4.20;;;2.38;;
9422;SDS011;65863;49.506;10.400;2023-08-12T11:59:09;3.20;;;2.05;;
9422;SDS011;65863;49.506;10.400;2023-08-12T12:01:54;3.40;;;2.05;;
9422;SDS011;65863;49.506;10.400;2023-08-12T12:04:39;3.53;;;1.90;;
9422;SDS011;65863;49.506;10.400;2023-08-12T12:07:25;4.60;;;2.25;;
9422;SDS011;65863;49.506;10.400;2023-08-12T12:10:16;1.98;;;1.83;;
9422;SDS011;65863;49.506;10.400;2023-08-12T12:13:03;2.97;;;1.95;;
9422;SDS011;65863;49.506;10.400;2023-08-12T12:15:47;3.72;;;1.83;;
9422;SDS011;65863;49.506;10.400;2023-08-12T12:18:31;2.78;;;2.08;;
9422;SDS011;65863;49.506;10.400;2023-08-12T12:21:19;3.03;;;2.10;;
9422;SDS011;65863;49.506;10.400;2023-08-12T12:24:04;2.80;;;1.92;;
9422;SDS011;65863;49.506;10.400;2023-08-12T12:26:49;1.88;;;1.77;;
9422;SDS011;65863;49.506;10.400;2023-08-12T12:29:33;11.50;;;2.13;;
9422;SDS011;65863;49.506;10.400;2023-08-12T12:32:20;5.13;;;2.08;;
9422;SDS011;65863;49.506;10.400;2023-08-12T12:35:05;4.90;;;1.90;;
9422;SDS011;65863;49.506;10.400;2023-08-12T12:37:50;2.00;;;1.80;;
9422;SDS011;65863;49.506;10.400;2023-08-12T12:40:35;3.25;;;2.10;;
9422;SDS011;65863;49.506;10.400;2023-08-12T12:43:21;5.78;;;2.15;;
9422;SDS011;65863;49.506;10.400;2023-08-12T12:46:05;2.58;;;1.70;;
9422;SDS011;65863;49.506;10.400;2023-08-12T12:48:51;3.33;;;1.80;;
9422;SDS011;65863;49.506;10.400;2023-08-12T12:51:35;3.08;;;1.90;;
9422;SDS011;65863;49.506;10.400;2023-08-12T12:54:18;4.18;;;1.70;;
9422;SDS011;65863;49.506;10.400;2023-08-12T12:57:03;2.67;;;1.80;;
9422;SDS011;65863;49.506;10.400;2023-08-12T12:59:50;4.55;;;2.00;;
9422;SDS011;65863;49.506;10.400;2023-08-12T13:02:34;4.25;;;2.10;;
9422;SDS011;65863;49.506;10.400;2023-08-12T13:05:18;1.70;;;1.60;;
9422;SDS011;65863;49.506;10.400;2023-08-12T13:08:02;2.65;;;1.88;;
9422;SDS011;65863;49.506;10.400;2023-08-12T13:10:46;3.45;;;1.92;;
9422;SDS011;65863;49.506;10.400;2023-08-12T13:13:30;2.22;;;2.05;;
9422;SDS011;65863;49.506;10.400;2023-08-12T13:16:14;3.58;;;2.28;;
9422;SDS011;65863;49.506;10.400;2023-08-12T13:18:58;4.82;;;2.10;;
9422;SDS011;65863;49.506;10.400;2023-08-12T13:21:43;12.02;;;3.60;;
9422;SDS011;65863;49.506;10.400;2023-08-12T13:24:27;11.23;;;4.77;;
9422;SDS011;65863;49.506;10.400;2023-08-12T13:27:11;4.40;;;2.80;;
9422;SDS011;65863;49.506;10.400;2023-08-12T13:29:57;2.23;;;1.50;;
9422;SDS011;65863;49.506;10.400;2023-08-12T13:32:41;4.47;;;2.00;;
9422;SDS011;65863;49.506;10.400;2023-08-12T13:35:25;3.77;;;2.67;;
9422;SDS011;65863;49.506;10.400;2023-08-12T13:38:09;8.13;;;3.03;;
9422;SDS011;65863;49.506;10.400;2023-08-12T13:40:53;3.53;;;2.97;;
9422;SDS011;65863;49.506;10.400;2023-08-12T13:43:37;3.80;;;2.70;;
9422;SDS011;65863;49.506;10.400;2023-08-12T13:46:21;6.17;;;2.90;;
9422;SDS011;65863;49.506;10.400;2023-08-12T13:49:05;3.20;;;2.60;;
9422;SDS011;65863;49.506;10.400;2023-08-12T13:51:49;4.23;;;2.10;;
9422;SDS011;65863;49.506;10.400;2023-08-12T13:54:34;2.20;;;2.00;;
9422;SDS011;65863;49.506;10.400;2023-08-12T13:57:18;6.07;;;2.30;;
9422;SDS011;65863;49.506;10.400;2023-08-12T14:00:02;3.47;;;2.20;;
9422;SDS011;65863;49.506;10.400;2023-08-12T14:02:56;3.17;;;1.90;;
9422;SDS011;65863;49.506;10.400;2023-08-12T14:05:40;2.37;;;1.67;;
9422;SDS011;65863;49.506;10.400;2023-08-12T14:08:25;4.40;;;1.50;;
9422;SDS011;65863;49.506;10.400;2023-08-12T14:11:09;1.57;;;1.40;;
9422;SDS011;65863;49.506;10.400;2023-08-12T14:13:56;3.23;;;1.40;;
9422;SDS011;65863;49.506;10.400;2023-08-12T14:16:40;2.87;;;1.40;;
9422;SDS011;65863;49.506;10.400;2023-08-12T14:19:25;3.97;;;1.90;;
9422;SDS011;65863;49.506;10.400;2023-08-12T14:22:09;3.67;;;1.37;;
9422;SDS011;65863;49.506;10.400;2023-08-12T14:24:53;2.03;;;1.30;;
9422;SDS011;65863;49.506;10.400;2023-08-12T14:27:37;1.77;;;1.40;;
9422;SDS011;65863;49.506;10.400;2023-08-12T14:30:23;1.47;;;1.27;;
9422;SDS011;65863;49.506;10.400;2023-08-12T14:33:09;2.37;;;1.40;;
9422;SDS011;65863;49.506;10.400;2023-08-12T14:35:53;2.00;;;1.90;;
9422;SDS011;65863;49.506;10.400;2023-08-12T14:38:38;3.30;;;1.60;;
9422;SDS011;65863;49.506;10.400;2023-08-12T14:41:22;1.90;;;1.50;;
9422;SDS011;65863;49.506;10.400;2023-08-12T14:44:06;1.80;;;1.50;;
9422;SDS011;65863;49.506;10.400;2023-08-12T14:46:50;1.77;;;1.23;;
9422;SDS011;65863;49.506;10.400;2023-08-12T14:49:35;3.07;;;1.53;;
9422;SDS011;65863;49.506;10.400;2023-08-12T14:52:19;2.50;;;1.30;;
9422;SDS011;65863;49.506;10.400;2023-08-12T14:55:04;2.43;;;1.30;;
9422;SDS011;65863;49.506;10.400;2023-08-12T14:57:48;2.90;;;1.67;;
9422;SDS011;65863;49.506;10.400;2023-08-12T15:00:32;3.43;;;1.93;;
9422;SDS011;65863;49.506;10.400;2023-08-12T15:03:17;2.97;;;1.50;;
9422;SDS011;65863;49.506;10.400;2023-08-12T15:06:05;3.53;;;1.33;;
9422;SDS011;65863;49.506;10.400;2023-08-12T15:08:49;2.37;;;1.50;;
9422;SDS011;65863;49.506;10.400;2023-08-12T15:11:33;2.33;;;2.00;;
9422;SDS011;65863;49.506;10.400;2023-08-12T15:14:18;3.73;;;2.10;;
9422;SDS011;65863;49.506;10.400;2023-08-12T15:17:02;3.57;;;1.73;;
9422;SDS011;65863;49.506;10.400;2023-08-12T15:19:46;3.03;;;1.40;;
9422;SDS011;65863;49.506;10.400;2023-08-12T15:22:30;4.40;;;1.63;;
9422;SDS011;65863;49.506;10.400;2023-08-12T15:25:14;4.80;;;2.00;;
9422;SDS011;65863;49.506;10.400;2023-08-12T15:27:58;4.43;;;1.80;;
9422;SDS011;65863;49.506;10.400;2023-08-12T15:30:42;3.33;;;2.20;;
9422;SDS011;65863;49.506;10.400;2023-08-12T15:33:26;2.67;;;1.50;;
9422;SDS011;65863;49.506;10.400;2023-08-12T15:36:10;1.50;;;1.23;;
9422;SDS011;65863;49.506;10.400;2023-08-12T15:38:54;4.00;;;1.60;;
9422;SDS011;65863;49.506;10.400;2023-08-12T15:41:41;3.03;;;1.57;;
9422;SDS011;65863;49.506;10.400;2023-08-12T15:44:26;2.97;;;1.93;;
9422;SDS011;65863;49.506;10.400;2023-08-12T15:47:11;1.43;;;1.33;;
9422;SDS011;65863;49.506;10.400;2023-08-12T15:49:55;1.20;;;1.10;;
9422;SDS011;65863;49.506;10.400;2023-08-12T15:52:39;1.33;;;1.17;;
9422;SDS011;65863;49.506;10.400;2023-08-12T15:55:23;4.97;;;1.10;;
9422;SDS011;65863;49.506;10.400;2023-08-12T15:58:07;1.47;;;1.20;;
9422;SDS011;65863;49.506;10.400;2023-08-12T16:00:51;1.40;;;1.17;;
9422;SDS011;65863;49.506;10.400;2023-08-12T16:03:36;2.93;;;2.50;;
9422;SDS011;65863;49.506;10.400;2023-08-12T16:06:20;4.63;;;2.10;;
9422;SDS011;65863;49.506;10.400;2023-08-12T16:09:04;3.23;;;2.80;;
9422;SDS011;65863;49.506;10.400;2023-08-12T16:11:48;6.50;;;2.80;;
9422;SDS011;65863;49.506;10.400;2023-08-12T16:14:33;7.73;;;5.00;;
9422;SDS011;65863;49.506;10.400;2023-08-12T16:17:18;10.00;;;5.07;;
9422;SDS011;65863;49.506;10.400;2023-08-12T16:20:01;8.87;;;7.77;;
9422;SDS011;65863;49.506;10.400;2023-08-12T16:22:46;7.43;;;5.30;;
9422;SDS011;65863;49.506;10.400;2023-08-12T16:25:30;3.20;;;1.83;;
9422;SDS011;65863;49.506;10.400;2023-08-12T16:28:14;6.97;;;5.03;;
9422;SDS011;65863;49.506;10.400;2023-08-12T16:30:58;2.70;;;1.97;;
9422;SDS011;65863;49.506;10.400;2023-08-12T16:33:44;1.70;;;1.60;;